Time;durP1;ratioP1;P1;durP2;ratioP2;P2;SDS_P1;SDS_P2;PMS_P1;PMS_P2;Temp;Humidity;BMP_temperature;BMP_pressure;BME280_temperature;BME280_humidity;BME280_pressure;Samples;Min_cycle;Max_cycle;Signal;HPM_P1;HPM_P2
2022/09/16 00:01:52;;;;;;;6.97;2.45;;;14.40;99.90;;;;;;5095148;28;20056;-66
2022/09/16 00:04:19;;;;;;;7.85;2.20;;;14.40;99.90;;;;;;5073700;28;20109;-66
2022/09/16 00:06:46;;;;;;;6.18;2.10;;;14.40;99.90;;;;;;5075799;28;20044;-66
2022/09/16 00:09:13;;;;;;;4.25;1.98;;;14.40;99.90;;;;;;5074063;28;20476;-66
2022/09/16 00:11:40;;;;;;;4.93;2.00;;;14.40;99.90;;;;;;5074428;28;20045;-66
2022/09/16 00:14:07;;;;;;;5.70;2.63;;;14.40;99.90;;;;;;5074134;28;20101;-66
2022/09/16 00:16:34;;;;;;;4.43;1.77;;;14.40;99.90;;;;;;5077396;28;20475;-66
2022/09/16 00:19:02;;;;;;;7.32;2.28;;;14.40;99.90;;;;;;5091574;28;20051;-67
2022/09/16 00:21:29;;;;;;;6.20;3.08;;;14.40;99.90;;;;;;5089622;28;20049;-66
2022/09/16 00:23:56;;;;;;;4.80;2.17;;;14.40;99.90;;;;;;5089718;28;20482;-67
2022/09/16 00:26:23;;;;;;;5.75;2.03;;;14.40;99.90;;;;;;5089956;28;20056;-67
2022/09/16 00:28:50;;;;;;;4.88;2.20;;;14.40;99.90;;;;;;5075003;28;20098;-67
2022/09/16 00:31:17;;;;;;;6.30;2.05;;;14.40;99.90;;;;;;5089342;28;20090;-67
2022/09/16 00:33:44;;;;;;;7.35;2.80;;;14.40;99.90;;;;;;5073764;28;20075;-67
2022/09/16 00:36:16;;;;;;;3.75;1.92;;;14.40;99.90;;;;;;5073842;28;20118;-67
2022/09/16 00:38:43;;;;;;;5.90;1.80;;;14.40;99.90;;;;;;5072414;28;20044;-67
2022/09/16 00:41:17;;;;;;;4.57;2.67;;;14.40;99.90;;;;;;5056321;28;20044;-67
2022/09/16 00:43:51;;;;;;;8.90;1.90;;;14.40;99.90;;;;;;5072624;28;20041;-67
2022/09/16 00:46:40;;;;;;;4.90;1.95;;;14.40;99.90;;;;;;5073597;28;20047;-67
2022/09/16 00:49:19;;;;;;;8.70;2.13;;;14.40;99.90;;;;;;5065124;28;20045;-67
2022/09/16 00:51:47;;;;;;;3.85;1.40;;;14.40;99.90;;;;;;5072644;28;20467;-67
2022/09/16 00:54:14;;;;;;;3.45;1.70;;;14.40;99.90;;;;;;5072107;28;20098;-67
2022/09/16 00:56:42;;;;;;;7.93;2.13;;;14.40;99.90;;;;;;5089491;28;20041;-67
2022/09/16 00:59:13;;;;;;;4.22;1.80;;;14.30;99.90;;;;;;5079063;28;20040;-67
2022/09/16 01:01:43;;;;;;;7.00;1.90;;;14.30;99.90;;;;;;5065681;28;20048;-67
2022/09/16 01:04:22;;;;;;;6.05;2.33;;;14.30;99.90;;;;;;5090729;28;20037;-67
2022/09/16 01:06:49;;;;;;;6.28;1.70;;;14.30;99.90;;;;;;5092917;28;20055;-67
2022/09/16 01:09:16;;;;;;;3.97;1.92;;;14.30;99.90;;;;;;5090006;28;20052;-67
2022/09/16 01:11:43;;;;;;;5.30;1.50;;;14.30;99.90;;;;;;5067740;28;20044;-67
2022/09/16 01:17:17;;;;;;;3.00;1.95;;;14.30;99.90;;;;;;5085504;28;20143;-67
2022/09/16 01:20:28;;;;;;;2.72;1.90;;;14.30;99.90;;;;;;5073074;28;20075;-67
2022/09/16 01:23:36;;;;;;;3.28;1.73;;;14.30;99.90;;;;;;5061646;28;20452;-67
2022/09/16 01:26:21;;;;;;;4.97;1.88;;;14.20;99.90;;;;;;5072233;28;20044;-67
2022/09/16 01:29:15;;;;;;;6.95;2.78;;;14.20;99.90;;;;;;5072778;28;20432;-67
2022/09/16 01:31:57;;;;;;;158.10;121.50;;;14.10;99.90;;;;;;5071791;28;20479;-70
2022/09/16 01:34:56;;;;;;;15.70;10.63;;;14.10;99.90;;;;;;5080971;28;20035;-67
2022/09/16 01:37:42;;;;;;;12.20;9.10;;;14.10;99.90;;;;;;5075067;28;20044;-67
2022/09/16 01:40:27;;;;;;;7.13;3.75;;;14.10;99.90;;;;;;5092862;28;20525;-67
2022/09/16 01:43:13;;;;;;;3.72;2.05;;;14.10;99.90;;;;;;5073578;28;20150;-67
2022/09/16 01:45:52;;;;;;;5.35;2.00;;;14.10;99.90;;;;;;5083566;28;20051;-67
2022/09/16 01:48:28;;;;;;;4.90;1.50;;;14.00;99.90;;;;;;5073485;28;20041;-67
2022/09/16 01:51:19;;;;;;;5.00;2.10;;;14.00;99.90;;;;;;5073039;28;20045;-67
2022/09/16 01:54:02;;;;;;;3.22;2.30;;;13.90;99.90;;;;;;5071703;28;20480;-67
2022/09/16 01:57:03;;;;;;;10.77;1.60;;;13.90;99.90;;;;;;5073494;28;20045;-67
2022/09/16 01:59:36;;;;;;;4.80;1.73;;;13.90;99.90;;;;;;5054466;28;20161;-67
2022/09/16 02:02:11;;;;;;;7.43;2.30;;;13.80;99.90;;;;;;5072929;28;20044;-67
2022/09/16 02:04:42;;;;;;;4.47;1.40;;;13.80;99.90;;;;;;5082720;28;20043;-67
2022/09/16 02:07:09;;;;;;;4.65;2.03;;;13.70;99.90;;;;;;5080002;28;20121;-67
2022/09/16 02:09:39;;;;;;;8.07;2.30;;;13.70;99.90;;;;;;5083766;28;20044;-67
2022/09/16 02:12:09;;;;;;;4.57;1.70;;;13.60;99.90;;;;;;5055273;28;20040;-67
2022/09/16 02:14:39;;;;;;;3.47;1.45;;;13.60;99.90;;;;;;5071776;28;20037;-67
2022/09/16 02:17:08;;;;;;;6.30;1.80;;;13.50;99.90;;;;;;5071630;28;20064;-67
2022/09/16 02:19:48;;;;;;;4.70;1.50;;;13.50;99.90;;;;;;5054653;28;20040;-67
2022/09/16 02:22:17;;;;;;;2.60;1.63;;;13.50;99.90;;;;;;5079820;28;20349;-67
2022/09/16 02:24:44;;;;;;;3.50;1.58;;;13.40;99.90;;;;;;5077621;28;20541;-67
2022/09/16 02:27:16;;;;;;;3.25;1.48;;;13.30;99.90;;;;;;5054655;28;20071;-67
2022/09/16 02:29:49;;;;;;;3.85;1.70;;;13.30;99.90;;;;;;5070627;28;20422;-67
2022/09/16 02:32:16;;;;;;;5.05;1.42;;;13.30;99.90;;;;;;5056783;28;20464;-67
2022/09/16 02:34:45;;;;;;;4.25;1.40;;;13.20;99.90;;;;;;5088057;28;20040;-67
2022/09/16 02:37:27;;;;;;;6.00;1.80;;;13.20;99.90;;;;;;5074820;28;20052;-67
2022/09/16 02:39:56;;;;;;;3.35;1.65;;;13.20;99.90;;;;;;5076090;28;20091;-67
2022/09/16 02:42:23;;;;;;;2.97;1.30;;;13.10;99.90;;;;;;5091061;28;20139;-67
2022/09/16 02:44:50;;;;;;;3.10;1.40;;;13.10;99.90;;;;;;5085852;28;20037;-67
2022/09/16 02:48:14;;;;;;;3.70;1.95;;;13.10;99.90;;;;;;5063871;28;20044;-67
2022/09/16 02:50:53;;;;;;;2.92;1.83;;;13.10;99.90;;;;;;5049648;28;20075;-67
2022/09/16 02:53:43;;;;;;;6.43;1.40;;;13.00;99.90;;;;;;5031269;28;20069;-67
2022/09/16 02:56:22;;;;;;;3.20;1.70;;;13.00;99.90;;;;;;5065305;28;20531;-67
2022/09/16 02:58:49;;;;;;;3.05;1.90;;;13.00;99.90;;;;;;5071887;28;20105;-67
2022/09/16 03:01:15;;;;;;;6.80;2.05;;;13.00;99.90;;;;;;5086030;28;20543;-67
2022/09/16 03:03:42;;;;;;;5.15;2.13;;;12.90;99.90;;;;;;5073913;28;20159;-67
2022/09/16 03:06:18;;;;;;;2.65;1.30;;;12.90;99.90;;;;;;5060412;28;20049;-67
2022/09/16 03:08:45;;;;;;;7.75;2.05;;;12.90;99.90;;;;;;5070866;28;20094;-67
2022/09/16 03:11:31;;;;;;;3.88;1.80;;;12.90;99.90;;;;;;5053718;28;20124;-67
2022/09/16 03:14:03;;;;;;;8.63;2.00;;;13.00;99.90;;;;;;5071318;28;20097;-67
2022/09/16 03:16:43;;;;;;;3.97;1.60;;;13.00;99.90;;;;;;5075642;28;20093;-67
2022/09/16 03:19:24;;;;;;;4.68;1.60;;;13.00;99.90;;;;;;5056960;28;20110;-67
2022/09/16 03:22:16;;;;;;;5.15;1.65;;;13.00;99.90;;;;;;5070195;28;20057;-67
2022/09/16 03:25:05;;;;;;;4.88;1.58;;;13.00;99.90;;;;;;5073514;28;20369;-67
2022/09/16 03:27:35;;;;;;;2.87;1.50;;;13.00;99.90;;;;;;5081006;28;20414;-67
2022/09/16 03:30:07;;;;;;;6.28;2.42;;;13.00;99.90;;;;;;5077823;28;20101;-67
2022/09/16 03:32:38;;;;;;;3.42;1.50;;;13.10;99.90;;;;;;5074293;28;20475;-67
2022/09/16 03:35:09;;;;;;;6.28;1.90;;;13.10;99.90;;;;;;5090411;28;20045;-67
2022/09/16 03:37:36;;;;;;;4.60;1.48;;;13.10;99.90;;;;;;5095768;28;20036;-67
2022/09/16 03:40:08;;;;;;;4.07;1.85;;;13.10;99.90;;;;;;5061919;28;20415;-67
2022/09/16 03:42:38;;;;;;;3.80;1.65;;;13.10;99.90;;;;;;5074331;28;20554;-67
2022/09/16 03:45:06;;;;;;;4.82;1.60;;;13.10;99.90;;;;;;5073767;28;20060;-67
2022/09/16 03:47:33;;;;;;;3.13;1.40;;;13.10;99.90;;;;;;5073464;28;20558;-67
2022/09/16 03:50:00;;;;;;;3.90;1.85;;;13.10;99.90;;;;;;5080286;28;20045;-67
2022/09/16 03:52:26;;;;;;;5.28;1.80;;;13.10;99.90;;;;;;5094086;28;20048;-67
2022/09/16 03:54:53;;;;;;;5.50;1.83;;;13.10;99.90;;;;;;5085217;28;20052;-67
2022/09/16 03:57:20;;;;;;;9.35;1.88;;;13.10;99.90;;;;;;5086219;28;20113;-67
2022/09/16 03:59:47;;;;;;;5.90;1.98;;;13.10;99.90;;;;;;5091515;28;20048;-67
2022/09/16 04:02:14;;;;;;;5.10;2.13;;;13.00;99.90;;;;;;5088481;28;20479;-67
2022/09/16 04:04:41;;;;;;;6.03;1.67;;;13.10;99.90;;;;;;5078273;28;20043;-67
2022/09/16 04:07:08;;;;;;;3.63;1.70;;;13.00;99.90;;;;;;5095219;28;20040;-67
2022/09/16 04:09:36;;;;;;;4.65;1.52;;;13.00;99.90;;;;;;5073173;28;20032;-67
2022/09/16 04:12:04;;;;;;;5.05;2.05;;;13.00;99.90;;;;;;5073682;28;20052;-67
2022/09/16 04:14:31;;;;;;;3.53;2.20;;;13.00;99.90;;;;;;5073893;28;20048;-69
2022/09/16 04:16:57;;;;;;;3.30;1.55;;;13.00;99.90;;;;;;5096741;28;20082;-67
2022/09/16 04:19:25;;;;;;;9.35;2.42;;;13.00;99.90;;;;;;5094549;28;20529;-67
2022/09/16 04:21:52;;;;;;;3.40;1.98;;;13.00;99.90;;;;;;5072902;28;20147;-67
2022/09/16 04:24:19;;;;;;;3.25;1.52;;;12.90;99.90;;;;;;5073170;28;20075;-67
2022/09/16 04:26:45;;;;;;;2.97;1.80;;;12.90;99.90;;;;;;5072884;28;20529;-67
2022/09/16 04:29:12;;;;;;;4.63;1.90;;;12.90;99.90;;;;;;5072957;28;20412;-67
2022/09/16 04:31:39;;;;;;;5.25;1.83;;;12.90;99.90;;;;;;5075284;28;20079;-67
2022/09/16 04:34:06;;;;;;;6.18;2.10;;;12.90;99.90;;;;;;5089689;28;20484;-67
2022/09/16 04:36:33;;;;;;;4.18;1.90;;;12.90;99.90;;;;;;5088483;28;20114;-67
2022/09/16 04:39:00;;;;;;;5.25;2.15;;;12.80;99.90;;;;;;5072983;28;20048;-66
2022/09/16 04:41:27;;;;;;;6.65;2.40;;;12.80;99.90;;;;;;5074152;28;20102;-67
2022/09/16 04:43:55;;;;;;;3.10;1.60;;;12.80;99.90;;;;;;5073793;28;20052;-67
2022/09/16 04:46:26;;;;;;;3.90;2.42;;;12.80;99.90;;;;;;5056213;28;20040;-66
2022/09/16 04:48:53;;;;;;;6.75;2.03;;;12.70;99.90;;;;;;5072648;28;20048;-66
2022/09/16 04:51:26;;;;;;;5.57;2.28;;;12.70;99.90;;;;;;5073063;28;20051;-66
2022/09/16 04:53:54;;;;;;;5.93;1.98;;;12.60;99.90;;;;;;5088654;28;20113;-67
2022/09/16 04:56:23;;;;;;;4.68;2.45;;;12.60;99.90;;;;;;5109485;28;20044;-66
2022/09/16 04:58:52;;;;;;;8.15;1.98;;;12.60;99.90;;;;;;5108945;28;20047;-66
2022/09/16 05:01:39;;;;;;;6.03;2.08;;;12.60;99.90;;;;;;5109474;28;20425;-66
2022/09/16 05:04:06;;;;;;;5.07;2.10;;;12.60;99.90;;;;;;5091009;28;20044;-66
2022/09/16 05:06:34;;;;;;;5.13;2.42;;;12.50;99.90;;;;;;5092558;28;20044;-66
2022/09/16 05:09:02;;;;;;;6.95;2.00;;;12.50;99.90;;;;;;5093164;28;20044;-66
2022/09/16 05:11:31;;;;;;;4.60;1.88;;;12.50;99.90;;;;;;5092467;28;20480;-66
2022/09/16 05:13:58;;;;;;;3.65;2.10;;;12.50;99.90;;;;;;5080382;28;20473;-66
2022/09/16 05:16:26;;;;;;;5.53;1.70;;;12.50;99.90;;;;;;5039361;28;20086;-66
2022/09/16 05:18:54;;;;;;;5.55;2.58;;;12.50;99.90;;;;;;5071976;28;20044;-66
2022/09/16 05:21:22;;;;;;;5.57;2.03;;;12.50;99.90;;;;;;5089200;28;20476;-66
2022/09/16 05:23:49;;;;;;;6.03;2.20;;;12.50;99.90;;;;;;5062617;28;20075;-66
2022/09/16 05:26:17;;;;;;;5.88;2.28;;;12.40;99.90;;;;;;5088959;28;20090;-66
2022/09/16 05:28:44;;;;;;;3.90;1.77;;;12.40;99.90;;;;;;5094961;28;20378;-66
2022/09/16 05:31:14;;;;;;;4.45;3.03;;;12.40;99.90;;;;;;5063634;28;20048;-66
2022/09/16 05:33:42;;;;;;;9.18;1.98;;;12.30;99.90;;;;;;5094942;28;20043;-66
2022/09/16 05:36:14;;;;;;;5.90;2.00;;;12.30;99.90;;;;;;5079479;28;20056;-66
2022/09/16 05:38:42;;;;;;;6.38;2.50;;;12.30;99.90;;;;;;5072202;28;20041;-66
2022/09/16 05:41:28;;;;;;;10.23;2.25;;;12.30;99.90;;;;;;5072340;28;20132;-66
2022/09/16 05:43:58;;;;;;;6.47;2.22;;;12.20;99.90;;;;;;5075012;28;20044;-66
2022/09/16 05:46:25;;;;;;;6.55;2.47;;;12.20;99.90;;;;;;5082444;28;20075;-66
2022/09/16 05:48:52;;;;;;;6.00;2.13;;;12.20;99.90;;;;;;5078864;28;20143;-66
2022/09/16 05:51:20;;;;;;;9.10;3.03;;;12.20;99.90;;;;;;5072427;28;20053;-66
2022/09/16 05:53:48;;;;;;;8.18;2.40;;;12.20;99.90;;;;;;5071808;28;20414;-66
2022/09/16 05:56:24;;;;;;;4.93;2.28;;;12.20;99.90;;;;;;5072772;28;20053;-66
2022/09/16 05:58:52;;;;;;;6.72;2.63;;;12.20;99.90;;;;;;5055557;28;20356;-66
2022/09/16 06:01:21;;;;;;;6.20;2.60;;;12.20;99.90;;;;;;5071235;28;20093;-66
2022/09/16 06:03:49;;;;;;;7.57;2.00;;;12.20;99.90;;;;;;5071130;28;20037;-66
2022/09/16 06:06:32;;;;;;;8.15;2.35;;;12.20;99.90;;;;;;5083525;28;20044;-66
2022/09/16 06:09:03;;;;;;;8.13;2.88;;;12.20;99.90;;;;;;5088184;28;20095;-66
2022/09/16 06:11:31;;;;;;;7.68;2.38;;;12.20;99.90;;;;;;5054878;28;20430;-66
2022/09/16 06:13:59;;;;;;;6.22;2.70;;;12.20;99.90;;;;;;5054614;28;20426;-66
2022/09/16 06:16:26;;;;;;;3.85;2.58;;;12.20;99.90;;;;;;5070901;28;20048;-66
2022/09/16 06:18:54;;;;;;;5.85;2.70;;;12.30;99.90;;;;;;5087473;28;20537;-66
2022/09/16 06:21:21;;;;;;;5.88;2.42;;;12.30;99.90;;;;;;5070775;28;20472;-66
2022/09/16 06:23:48;;;;;;;4.45;2.40;;;12.30;99.90;;;;;;5087680;28;20051;-66
2022/09/16 06:26:17;;;;;;;6.85;2.55;;;12.30;99.90;;;;;;5085471;28;20472;-66
2022/09/16 06:28:45;;;;;;;8.60;2.50;;;12.30;99.90;;;;;;5093455;28;20494;-66
2022/09/16 06:31:15;;;;;;;4.68;1.88;;;12.30;99.90;;;;;;5072346;28;20051;-66
2022/09/16 06:33:41;;;;;;;;;;;12.30;99.90;;;;;;5076058;28;20041;-66
2022/09/16 06:36:11;;;;;;;6.10;3.30;;;12.30;99.90;;;;;;5070443;28;20322;-66
2022/09/16 06:38:38;;;;;;;8.35;2.72;;;12.30;99.90;;;;;;5071801;28;20048;-67
2022/09/16 06:41:06;;;;;;;6.03;2.55;;;12.40;99.90;;;;;;5069325;28;20080;-66
2022/09/16 06:43:33;;;;;;;6.03;2.10;;;12.40;99.90;;;;;;5070621;28;20076;-66
2022/09/16 06:46:02;;;;;;;3.88;1.90;;;12.40;99.90;;;;;;5054556;28;20044;-66
2022/09/16 06:48:32;;;;;;;8.30;2.75;;;12.40;99.90;;;;;;5073848;28;20048;-66
2022/09/16 06:51:04;;;;;;;6.35;2.50;;;12.40;99.90;;;;;;5088398;28;20063;-67
2022/09/16 06:53:30;;;;;;;;;;;12.40;99.90;;;;;;5074972;28;20052;-66
2022/09/16 06:56:01;;;;;;;9.68;3.03;;;12.40;99.90;;;;;;5091857;28;20054;-66
2022/09/16 06:58:31;;;;;;;10.18;2.40;;;12.50;99.90;;;;;;5088083;28;20089;-66
2022/09/16 07:00:58;;;;;;;5.45;2.75;;;12.50;99.90;;;;;;5075790;28;20079;-66
2022/09/16 07:03:26;;;;;;;6.88;2.28;;;12.50;99.90;;;;;;5083861;28;20048;-66
2022/09/16 07:05:57;;;;;;;9.52;3.67;;;12.50;99.90;;;;;;5069665;28;20040;-66
2022/09/16 07:08:24;;;;;;;5.07;2.40;;;12.50;99.90;;;;;;5076314;28;20045;-66
2022/09/16 07:10:58;;;;;;;8.13;3.13;;;12.50;99.90;;;;;;5083516;28;20040;-66
2022/09/16 07:13:25;;;;;;;7.72;3.15;;;12.50;99.90;;;;;;5074641;28;20075;-66
2022/09/16 07:15:52;;;;;;;8.75;3.65;;;12.60;99.90;;;;;;5074535;28;20090;-67
2022/09/16 07:18:39;;;;;;;7.35;3.00;;;12.70;99.90;;;;;;5060235;28;20040;-67
2022/09/16 07:21:10;;;;;;;7.38;2.90;;;12.80;99.90;;;;;;5090791;28;20055;-66
2022/09/16 07:23:38;;;;;;;6.97;3.05;;;12.90;99.90;;;;;;5091202;28;20506;-67
2022/09/16 07:26:13;;;;;;;6.70;2.60;;;13.00;99.90;;;;;;5075474;28;20090;-66
2022/09/16 07:28:40;;;;;;;19.38;4.07;;;13.10;99.90;;;;;;5080576;28;20548;-67
2022/09/16 07:31:10;;;;;;;7.97;2.90;;;13.10;99.90;;;;;;5077316;28;20553;-66
2022/09/16 07:33:38;;;;;;;;;;;13.30;99.90;;;;;;5086353;28;20059;-66
2022/09/16 07:36:06;;;;;;;6.28;3.08;;;13.30;99.90;;;;;;5099100;28;19927;-66
2022/09/16 07:38:33;;;;;;;7.85;3.10;;;13.30;99.90;;;;;;5090642;28;20041;-66
2022/09/16 07:41:13;;;;;;;13.45;5.35;;;13.40;99.90;;;;;;5092257;28;20051;-66
2022/09/16 07:43:41;;;;;;;8.50;5.18;;;13.60;99.90;;;;;;5086519;28;20036;-67
2022/09/16 07:46:09;;;;;;;9.15;3.30;;;13.70;99.90;;;;;;5077571;28;20166;-67
2022/09/16 07:48:36;;;;;;;7.23;3.53;;;13.90;99.90;;;;;;5057875;28;20080;-67
2022/09/16 07:51:09;;;;;;;10.13;3.25;;;13.90;99.90;;;;;;5057572;28;20351;-67
2022/09/16 07:53:36;;;;;;;5.88;3.33;;;13.90;99.90;;;;;;5076397;28;20127;-67
2022/09/16 07:56:04;;;;;;;7.32;2.88;;;14.00;99.90;;;;;;5074003;28;20123;-66
2022/09/16 07:58:31;;;;;;;6.95;3.10;;;14.00;99.90;;;;;;5057394;28;20150;-67
2022/09/16 08:00:58;;;;;;;5.20;3.00;;;14.10;99.90;;;;;;5073628;28;20102;-67
2022/09/16 08:03:31;;;;;;;4.90;2.28;;;14.30;99.90;;;;;;5065502;28;20120;-67
2022/09/16 08:06:03;;;;;;;8.10;3.50;;;14.30;99.90;;;;;;5072997;28;20044;-67
2022/09/16 08:08:30;;;;;;;7.78;3.03;;;14.30;99.90;;;;;;5095571;28;20044;-67
2022/09/16 08:10:57;;;;;;;5.75;2.60;;;14.40;99.90;;;;;;5093553;28;20043;-67
2022/09/16 08:13:24;;;;;;;7.45;2.70;;;14.40;99.90;;;;;;5086229;28;20047;-67
2022/09/16 08:15:52;;;;;;;5.90;2.53;;;14.40;99.90;;;;;;5056383;28;20051;-67
2022/09/16 08:18:19;;;;;;;5.70;2.83;;;14.30;99.90;;;;;;5067464;28;20448;-67
2022/09/16 08:20:46;;;;;;;4.50;2.75;;;14.30;99.90;;;;;;5057048;28;20052;-67
2022/09/16 08:23:13;;;;;;;4.57;2.42;;;14.40;99.90;;;;;;5081772;28;20483;-67
2022/09/16 08:25:43;;;;;;;5.60;1.80;;;14.40;99.90;;;;;;5074729;28;20079;-67
2022/09/16 08:28:14;;;;;;;5.95;2.30;;;14.50;99.90;;;;;;5057208;28;20044;-67
2022/09/16 08:30:41;;;;;;;5.47;2.03;;;14.50;99.90;;;;;;5074021;28;20036;-67
2022/09/16 08:33:09;;;;;;;5.30;2.17;;;14.50;99.90;;;;;;5077046;28;20044;-67
2022/09/16 08:35:35;;;;;;;10.50;3.13;;;14.60;99.90;;;;;;5098818;28;20487;-67
2022/09/16 08:38:02;;;;;;;2.55;1.60;;;14.60;99.90;;;;;;5089924;28;20043;-67
2022/09/16 08:40:32;;;;;;;4.90;1.90;;;14.60;99.90;;;;;;5093196;28;20097;-67
2022/09/16 08:43:23;;;;;;;4.93;1.65;;;14.60;99.90;;;;;;5093798;28;20048;-67
2022/09/16 08:45:54;;;;;;;4.13;1.83;;;14.60;99.90;;;;;;5079719;28;20044;-67
2022/09/16 08:48:48;;;;;;;4.63;1.92;;;14.50;99.90;;;;;;5064325;28;20063;-67
2022/09/16 08:51:17;;;;;;;4.45;2.05;;;14.40;99.90;;;;;;5090698;28;20067;-67
2022/09/16 08:53:47;;;;;;;3.08;1.50;;;14.30;99.90;;;;;;5109072;28;20044;-67
2022/09/16 08:56:16;;;;;;;7.60;1.73;;;14.30;99.90;;;;;;5106531;28;20047;-67
2022/09/16 08:58:48;;;;;;;4.07;1.75;;;14.30;99.90;;;;;;5073158;28;20047;-67
2022/09/16 09:01:38;;;;;;;5.40;1.60;;;14.30;99.90;;;;;;5056128;28;20048;-67
2022/09/16 09:04:05;;;;;;;2.45;1.40;;;14.20;99.90;;;;;;5072680;28;20375;-67
2022/09/16 09:06:48;;;;;;;3.55;2.00;;;14.10;99.90;;;;;;5090988;28;20047;-67
2022/09/16 09:09:49;;;;;;;2.22;1.38;;;14.00;99.90;;;;;;5092656;28;20480;-67
2022/09/16 09:12:34;;;;;;;2.72;1.45;;;14.00;99.90;;;;;;5092774;28;20060;-67
2022/09/16 09:15:11;;;;;;;4.85;1.63;;;14.00;99.90;;;;;;5093415;28;20075;-67
2022/09/16 09:17:44;;;;;;;5.95;1.70;;;14.00;99.90;;;;;;5083209;28;20051;-67
2022/09/16 09:20:53;;;;;;;4.93;1.40;;;14.00;99.90;;;;;;5092604;28;20040;-67
2022/09/16 09:23:50;;;;;;;5.03;2.50;;;14.10;99.90;;;;;;5084052;28;20105;-67
2022/09/16 09:26:22;;;;;;;4.13;1.60;;;14.30;99.90;;;;;;5073617;28;20044;-67
2022/09/16 09:29:22;;;;;;;3.53;1.55;;;14.50;99.90;;;;;;5073080;28;20045;-67
2022/09/16 09:31:55;;;;;;;4.43;2.08;;;14.60;99.90;;;;;;5071821;28;20037;-67
2022/09/16 09:34:54;;;;;;;3.65;1.40;;;14.80;99.90;;;;;;5077143;28;20051;-67
2022/09/16 09:37:23;;;;;;;5.30;1.90;;;14.80;99.90;;;;;;5088063;28;20472;-67
2022/09/16 09:39:50;;;;;;;4.55;1.60;;;14.80;99.90;;;;;;5086715;28;20459;-67
2022/09/16 09:42:23;;;;;;;5.10;1.85;;;14.90;99.90;;;;;;5093173;28;20050;-67
2022/09/16 09:44:52;;;;;;;3.10;1.30;;;14.90;99.90;;;;;;5092179;28;20047;-67
2022/09/16 09:47:50;;;;;;;4.35;1.67;;;15.00;99.90;;;;;;5081229;28;20045;-67
2022/09/16 09:50:30;;;;;;;5.25;2.42;;;15.10;99.90;;;;;;5091190;28;20048;-67
2022/09/16 09:53:10;;;;;;;3.25;1.60;;;15.20;99.90;;;;;;5088745;28;20047;-67
2022/09/16 09:55:38;;;;;;;5.60;1.55;;;15.30;99.90;;;;;;5092155;28;20387;-67
2022/09/16 09:58:16;;;;;;;3.33;1.65;;;15.30;99.90;;;;;;5092101;28;20381;-67
2022/09/16 10:00:44;;;;;;;6.43;1.70;;;15.30;99.90;;;;;;5082276;28;20475;-67
2022/09/16 10:03:16;;;;;;;4.65;1.95;;;15.30;99.90;;;;;;5093249;28;20077;-67
2022/09/16 10:05:44;;;;;;;3.92;2.03;;;15.30;99.90;;;;;;5085040;28;20468;-67
2022/09/16 10:08:23;;;;;;;5.43;1.50;;;15.40;99.90;;;;;;5075028;28;20044;-66
2022/09/16 10:10:58;;;;;;;3.72;1.70;;;15.30;99.90;;;;;;5082642;28;20456;-66
2022/09/16 10:13:26;;;;;;;5.65;1.95;;;15.10;99.90;;;;;;5071656;28;20040;-67
2022/09/16 10:16:05;;;;;;;3.97;2.03;;;15.00;99.90;;;;;;5070686;28;20047;-67
2022/09/16 10:18:33;;;;;;;;;;;15.00;99.90;;;;;;5073303;28;20040;-67
2022/09/16 10:21:06;;;;;;;3.83;1.40;;;14.90;99.90;;;;;;5079298;28;19917;-67
2022/09/16 10:23:34;;;;;;;4.90;2.40;;;14.90;99.90;;;;;;5087055;28;20057;-66
2022/09/16 10:26:20;;;;;;;3.35;1.80;;;14.90;99.90;;;;;;5071289;28;20393;-67
2022/09/16 10:28:59;;;;;;;4.70;1.70;;;14.80;99.90;;;;;;5086960;28;20052;-67
2022/09/16 10:31:36;;;;;;;2.10;1.38;;;14.80;99.90;;;;;;5085800;28;20048;-67
2022/09/16 10:34:31;;;;;;;3.90;1.30;;;14.70;99.90;;;;;;5086945;28;20046;-66
2022/09/16 10:37:04;;;;;;;4.55;2.35;;;14.70;99.90;;;;;;5077023;28;20040;-67
2022/09/16 10:39:32;;;;;;;6.30;1.63;;;14.70;99.90;;;;;;5086641;28;20045;-66
2022/09/16 10:41:59;;;;;;;3.92;1.45;;;14.80;99.90;;;;;;5088427;28;20494;-67
2022/09/16 10:44:27;;;;;;;3.15;1.55;;;14.90;99.90;;;;;;5090981;28;20213;-67
2022/09/16 10:46:56;;;;;;;2.45;1.40;;;14.90;99.90;;;;;;5085424;28;20048;-66
2022/09/16 10:49:43;;;;;;;5.03;1.30;;;15.00;99.90;;;;;;5087223;28;20045;-67
2022/09/16 10:52:28;;;;;;;2.72;1.10;;;15.20;99.90;;;;;;5072200;28;20110;-67
2022/09/16 10:54:56;;;;;;;2.50;1.30;;;15.20;99.90;;;;;;5072129;28;20097;-67
2022/09/16 10:57:25;;;;;;;2.05;1.00;;;15.30;99.90;;;;;;5087672;28;20045;-67
2022/09/16 10:59:59;;;;;;;2.10;1.08;;;15.40;99.90;;;;;;5071546;28;20423;-67
2022/09/16 11:02:38;;;;;;;2.22;1.42;;;15.50;99.90;;;;;;5074093;28;20044;-67
2022/09/16 11:05:14;;;;;;;2.80;1.20;;;15.70;99.90;;;;;;5084149;28;20509;-67
2022/09/16 11:07:45;;;;;;;3.85;1.42;;;15.80;99.90;;;;;;5091233;28;20055;-66
2022/09/16 11:10:27;;;;;;;3.25;1.10;;;15.90;99.90;;;;;;5090883;28;20040;-67
2022/09/16 11:13:15;;;;;;;1.88;1.15;;;15.90;99.90;;;;;;5087587;28;20044;-67
2022/09/16 11:16:00;;;;;;;1.35;0.65;;;15.80;99.90;;;;;;5075040;28;20063;-62
2022/09/16 11:18:30;;;;;;;1.58;1.00;;;15.60;99.90;;;;;;5088995;28;20052;-67
2022/09/16 11:21:14;;;;;;;2.03;0.75;;;15.40;99.90;;;;;;5088287;28;20052;-67
2022/09/16 11:24:01;;;;;;;1.48;1.00;;;15.40;99.90;;;;;;5082138;28;20049;-67
2022/09/16 11:26:40;;;;;;;1.05;0.77;;;15.50;99.90;;;;;;5088851;28;20079;-67
2022/09/16 11:29:35;;;;;;;2.05;1.00;;;15.70;99.90;;;;;;5071308;28;20048;-67
2022/09/16 11:32:11;;;;;;;1.63;0.68;;;15.90;99.90;;;;;;5092602;28;20036;-67
2022/09/16 11:35:16;;;;;;;1.15;0.70;;;16.00;99.90;;;;;;5076915;28;20380;-67
2022/09/16 11:38:38;;;;;;;3.90;1.00;;;16.00;99.90;;;;;;5058937;28;20075;-66
2022/09/16 11:41:20;;;;;;;0.85;0.70;;;16.00;99.90;;;;;;5048445;28;20056;-67
2022/09/16 11:44:11;;;;;;;1.38;0.88;;;16.00;99.90;;;;;;5084140;28;20052;-67
2022/09/16 11:47:16;;;;;;;1.45;0.70;;;16.00;99.90;;;;;;5078678;28;20364;-67
2022/09/16 11:49:52;;;;;;;1.80;0.95;;;16.00;99.90;;;;;;5086632;28;20045;-67
2022/09/16 11:52:30;;;;;;;1.83;0.93;;;15.90;99.90;;;;;;5074864;28;20036;-67
2022/09/16 11:55:13;;;;;;;1.05;0.60;;;15.80;99.90;;;;;;5074227;28;20040;-67
2022/09/16 11:57:42;;;;;;;1.27;0.85;;;15.80;99.90;;;;;;5073627;28;20724;-67
2022/09/16 12:00:15;;;;;;;1.75;0.88;;;15.90;99.90;;;;;;5075703;28;20093;-67
2022/09/16 12:02:57;;;;;;;3.63;0.98;;;15.90;99.90;;;;;;5073555;28;20471;-67
2022/09/16 12:05:37;;;;;;;1.60;0.95;;;16.00;99.90;;;;;;5083928;28;20040;-67
2022/09/16 12:08:21;;;;;;;1.38;0.95;;;16.10;99.90;;;;;;5058438;28;20067;-67
2022/09/16 12:10:54;;;;;;;1.33;0.70;;;16.10;99.90;;;;;;5072115;28;20123;-67
2022/09/16 12:13:25;;;;;;;1.45;0.90;;;16.10;99.90;;;;;;5039748;28;20044;-67
2022/09/16 12:15:58;;;;;;;1.58;0.88;;;16.30;99.90;;;;;;5058730;28;20090;-67
2022/09/16 12:18:54;;;;;;;2.40;0.90;;;16.40;99.90;;;;;;5091520;28;20055;-67
2022/09/16 12:21:24;;;;;;;2.08;0.57;;;16.50;99.90;;;;;;5094282;28;20066;-67
2022/09/16 12:24:13;;;;;;;1.88;0.82;;;16.40;99.90;;;;;;5092838;28;20044;-67
2022/09/16 12:26:43;;;;;;;1.45;0.80;;;16.40;99.90;;;;;;5092721;28;20054;-67
2022/09/16 12:29:30;;;;;;;2.35;0.98;;;16.30;99.90;;;;;;5093861;28;20051;-67
2022/09/16 12:32:07;;;;;;;1.33;0.70;;;16.20;99.90;;;;;;5075066;28;20055;-67
2022/09/16 12:34:48;;;;;;;1.67;0.88;;;16.10;99.90;;;;;;5064999;28;20075;-67
2022/09/16 12:37:23;;;;;;;1.23;0.80;;;16.00;99.90;;;;;;5058034;28;20055;-67
2022/09/16 12:39:50;;;;;;;2.05;1.08;;;15.90;99.90;;;;;;5089545;28;20048;-67
2022/09/16 12:42:33;;;;;;;1.80;0.70;;;15.90;99.90;;;;;;5083724;28;20128;-67
2022/09/16 12:45:09;;;;;;;1.52;0.50;;;16.10;99.90;;;;;;5102850;28;20384;-67
2022/09/16 12:47:46;;;;;;;4.28;1.30;;;16.30;99.90;;;;;;5096974;28;20049;-67
2022/09/16 12:50:37;;;;;;;2.40;1.20;;;16.50;99.50;;;;;;5081828;28;20047;-67
2022/09/16 12:53:18;;;;;;;1.80;0.80;;;16.70;98.10;;;;;;5073930;28;20044;-67
2022/09/16 12:56:04;;;;;;;2.50;0.77;;;16.70;93.70;;;;;;5055796;28;20060;-67
2022/09/16 12:58:45;;;;;;;2.85;1.00;;;16.60;94.70;;;;;;5085366;28;20044;-67
2022/09/16 13:01:35;;;;;;;0.80;0.50;;;16.60;94.80;;;;;;5092193;28;20476;-67
2022/09/16 13:04:08;;;;;;;1.15;0.90;;;16.70;95.30;;;;;;5083114;28;20366;-67
2022/09/16 13:06:38;;;;;;;2.55;0.88;;;16.90;93.60;;;;;;5072863;28;20040;-67
2022/09/16 13:09:24;;;;;;;2.00;1.10;;;17.00;94.60;;;;;;5080295;28;20040;-67
2022/09/16 13:11:55;;;;;;;2.47;1.10;;;17.00;93.10;;;;;;5093748;28;20384;-67
2022/09/16 13:14:54;;;;;;;3.22;0.80;;;16.90;93.20;;;;;;5092050;28;20442;-67
2022/09/16 13:17:37;;;;;;;3.35;1.92;;;16.80;92.20;;;;;;5075885;28;20369;-69
2022/09/16 13:20:11;;;;;;;2.30;1.30;;;16.70;92.90;;;;;;5059929;28;20032;-72
2022/09/16 13:22:39;;;;;;;3.75;0.80;;;16.80;94.30;;;;;;5092330;28;20097;-69
2022/09/16 13:25:26;;;;;;;1.85;0.77;;;16.80;93.30;;;;;;5092252;28;20517;-69
2022/09/16 13:28:40;;;;;;;2.58;0.80;;;16.80;92.10;;;;;;5080863;28;20047;-70